sensor_id;sensor_type;location;lat;lon;timestamp;P1;durP1;ratioP1;P2;durP2;ratioP2
23001;SDS011;11667;51.706;4.856;2022-12-15T00:00:30;45.78;;;22.50;;
23001;SDS011;11667;51.706;4.856;2022-12-15T00:03:17;43.83;;;22.75;;
23001;SDS011;11667;51.706;4.856;2022-12-15T00:06:05;42.95;;;22.85;;
23001;SDS011;11667;51.706;4.856;2022-12-15T00:08:52;46.35;;;23.15;;
23001;SDS011;11667;51.706;4.856;2022-12-15T00:11:41;43.45;;;21.90;;
23001;SDS011;11667;51.706;4.856;2022-12-15T00:14:29;46.13;;;22.17;;
23001;SDS011;11667;51.706;4.856;2022-12-15T00:17:16;46.18;;;22.05;;
23001;SDS011;11667;51.706;4.856;2022-12-15T00:20:04;44.70;;;21.25;;
23001;SDS011;11667;51.706;4.856;2022-12-15T00:22:52;41.95;;;21.48;;
23001;SDS011;11667;51.706;4.856;2022-12-15T00:25:39;45.55;;;22.25;;
23001;SDS011;11667;51.706;4.856;2022-12-15T00:28:28;41.55;;;21.15;;
23001;SDS011;11667;51.706;4.856;2022-12-15T00:31:15;43.13;;;22.00;;
23001;SDS011;11667;51.706;4.856;2022-12-15T00:34:03;46.65;;;22.10;;
23001;SDS011;11667;51.706;4.856;2022-12-15T00:36:50;44.73;;;21.70;;
23001;SDS011;11667;51.706;4.856;2022-12-15T00:39:37;47.30;;;21.35;;
23001;SDS011;11667;51.706;4.856;2022-12-15T00:42:07;45.17;;;21.70;;
23001;SDS011;11667;51.706;4.856;2022-12-15T00:44:37;45.63;;;21.82;;
23001;SDS011;11667;51.706;4.856;2022-12-15T00:47:07;50.25;;;23.02;;
23001;SDS011;11667;51.706;4.856;2022-12-15T00:49:36;47.05;;;21.85;;
23001;SDS011;11667;51.706;4.856;2022-12-15T00:52:23;46.88;;;22.95;;
23001;SDS011;11667;51.706;4.856;2022-12-15T00:55:11;43.78;;;22.48;;
23001;SDS011;11667;51.706;4.856;2022-12-15T00:57:57;48.92;;;22.37;;
23001;SDS011;11667;51.706;4.856;2022-12-15T01:00:44;44.98;;;21.95;;
23001;SDS011;11667;51.706;4.856;2022-12-15T01:03:32;46.75;;;23.60;;
23001;SDS011;11667;51.706;4.856;2022-12-15T01:06:19;46.95;;;22.45;;
23001;SDS011;11667;51.706;4.856;2022-12-15T01:09:08;47.23;;;23.22;;
23001;SDS011;11667;51.706;4.856;2022-12-15T01:11:56;49.23;;;23.27;;
23001;SDS011;11667;51.706;4.856;2022-12-15T01:14:44;46.53;;;23.50;;
23001;SDS011;11667;51.706;4.856;2022-12-15T01:17:31;48.30;;;24.00;;
23001;SDS011;11667;51.706;4.856;2022-12-15T01:20:18;49.75;;;23.60;;
23001;SDS011;11667;51.706;4.856;2022-12-15T01:22:49;48.85;;;23.77;;
23001;SDS011;11667;51.706;4.856;2022-12-15T01:25:23;50.03;;;23.27;;
23001;SDS011;11667;51.706;4.856;2022-12-15T01:27:54;53.58;;;24.75;;
23001;SDS011;11667;51.706;4.856;2022-12-15T01:30:24;50.78;;;23.40;;
23001;SDS011;11667;51.706;4.856;2022-12-15T01:32:54;50.28;;;23.83;;
23001;SDS011;11667;51.706;4.856;2022-12-15T01:35:23;48.05;;;23.18;;
23001;SDS011;11667;51.706;4.856;2022-12-15T01:37:54;54.48;;;24.72;;
23001;SDS011;11667;51.706;4.856;2022-12-15T01:40:23;52.33;;;24.85;;
23001;SDS011;11667;51.706;4.856;2022-12-15T01:43:16;49.35;;;24.07;;
23001;SDS011;11667;51.706;4.856;2022-12-15T01:45:48;48.25;;;24.40;;
23001;SDS011;11667;51.706;4.856;2022-12-15T01:48:23;50.70;;;25.50;;
23001;SDS011;11667;51.706;4.856;2022-12-15T01:56:22;51.98;;;25.65;;
23001;SDS011;11667;51.706;4.856;2022-12-15T01:58:53;56.65;;;26.82;;
23001;SDS011;11667;51.706;4.856;2022-12-15T02:01:23;55.23;;;28.00;;
23001;SDS011;11667;51.706;4.856;2022-12-15T02:03:53;61.33;;;27.32;;
23001;SDS011;11667;51.706;4.856;2022-12-15T02:06:23;60.20;;;27.62;;
23001;SDS011;11667;51.706;4.856;2022-12-15T02:08:54;54.67;;;27.52;;
23001;SDS011;11667;51.706;4.856;2022-12-15T02:11:32;59.18;;;27.25;;
23001;SDS011;11667;51.706;4.856;2022-12-15T02:14:09;57.98;;;27.17;;
23001;SDS011;11667;51.706;4.856;2022-12-15T02:16:47;59.57;;;27.13;;
23001;SDS011;11667;51.706;4.856;2022-12-15T02:22:24;61.00;;;27.73;;
23001;SDS011;11667;51.706;4.856;2022-12-15T02:25:14;61.70;;;27.90;;
23001;SDS011;11667;51.706;4.856;2022-12-15T02:30:47;60.25;;;28.57;;
23001;SDS011;11667;51.706;4.856;2022-12-15T02:33:49;63.08;;;28.50;;
23001;SDS011;11667;51.706;4.856;2022-12-15T02:38:58;56.98;;;28.73;;
23001;SDS011;11667;51.706;4.856;2022-12-15T02:41:41;64.45;;;28.50;;
23001;SDS011;11667;51.706;4.856;2022-12-15T02:44:16;67.30;;;29.50;;
23001;SDS011;11667;51.706;4.856;2022-12-15T02:49:47;61.48;;;28.45;;
23001;SDS011;11667;51.706;4.856;2022-12-15T03:01:10;67.65;;;31.00;;
23001;SDS011;11667;51.706;4.856;2022-12-15T03:03:40;60.50;;;30.08;;
23001;SDS011;11667;51.706;4.856;2022-12-15T03:06:10;62.35;;;30.05;;
23001;SDS011;11667;51.706;4.856;2022-12-15T03:08:40;63.13;;;29.25;;
23001;SDS011;11667;51.706;4.856;2022-12-15T03:11:09;65.78;;;30.10;;
23001;SDS011;11667;51.706;4.856;2022-12-15T03:13:38;70.03;;;30.57;;
23001;SDS011;11667;51.706;4.856;2022-12-15T03:16:08;62.50;;;29.52;;
23001;SDS011;11667;51.706;4.856;2022-12-15T03:18:37;63.35;;;30.27;;
23001;SDS011;11667;51.706;4.856;2022-12-15T03:21:06;67.65;;;30.88;;
23001;SDS011;11667;51.706;4.856;2022-12-15T03:23:36;61.48;;;30.27;;
23001;SDS011;11667;51.706;4.856;2022-12-15T03:26:05;70.05;;;31.00;;
23001;SDS011;11667;51.706;4.856;2022-12-15T03:28:34;71.92;;;31.42;;
23001;SDS011;11667;51.706;4.856;2022-12-15T03:31:04;68.35;;;31.82;;
23001;SDS011;11667;51.706;4.856;2022-12-15T03:33:33;65.00;;;31.15;;
23001;SDS011;11667;51.706;4.856;2022-12-15T03:36:03;64.17;;;30.57;;
23001;SDS011;11667;51.706;4.856;2022-12-15T03:38:32;69.97;;;32.08;;
23001;SDS011;11667;51.706;4.856;2022-12-15T03:41:01;73.50;;;31.70;;
23001;SDS011;11667;51.706;4.856;2022-12-15T03:43:31;69.45;;;32.05;;
23001;SDS011;11667;51.706;4.856;2022-12-15T03:46:01;75.50;;;32.35;;
23001;SDS011;11667;51.706;4.856;2022-12-15T03:48:30;72.30;;;32.83;;
23001;SDS011;11667;51.706;4.856;2022-12-15T03:50:59;73.57;;;32.13;;
23001;SDS011;11667;51.706;4.856;2022-12-15T03:53:28;69.22;;;32.85;;
23001;SDS011;11667;51.706;4.856;2022-12-15T03:55:59;68.70;;;33.48;;
23001;SDS011;11667;51.706;4.856;2022-12-15T03:58:28;73.10;;;32.67;;
23001;SDS011;11667;51.706;4.856;2022-12-15T04:00:57;72.78;;;33.63;;
23001;SDS011;11667;51.706;4.856;2022-12-15T04:03:27;71.42;;;33.15;;
23001;SDS011;11667;51.706;4.856;2022-12-15T04:05:57;74.20;;;33.80;;
23001;SDS011;11667;51.706;4.856;2022-12-15T04:08:26;70.72;;;33.10;;
23001;SDS011;11667;51.706;4.856;2022-12-15T04:10:56;72.05;;;34.00;;
23001;SDS011;11667;51.706;4.856;2022-12-15T04:13:25;77.25;;;34.38;;
23001;SDS011;11667;51.706;4.856;2022-12-15T04:15:55;77.90;;;33.88;;
23001;SDS011;11667;51.706;4.856;2022-12-15T04:18:24;77.17;;;33.98;;
23001;SDS011;11667;51.706;4.856;2022-12-15T04:20:53;75.70;;;34.13;;
23001;SDS011;11667;51.706;4.856;2022-12-15T04:23:23;74.70;;;34.73;;
23001;SDS011;11667;51.706;4.856;2022-12-15T04:25:52;77.90;;;35.85;;
23001;SDS011;11667;51.706;4.856;2022-12-15T04:28:39;72.22;;;34.73;;
23001;SDS011;11667;51.706;4.856;2022-12-15T04:31:27;78.87;;;35.90;;
23001;SDS011;11667;51.706;4.856;2022-12-15T04:34:17;77.62;;;35.45;;
23001;SDS011;11667;51.706;4.856;2022-12-15T04:37:09;81.67;;;35.73;;
23001;SDS011;11667;51.706;4.856;2022-12-15T04:39:57;73.95;;;34.83;;
23001;SDS011;11667;51.706;4.856;2022-12-15T04:42:46;77.08;;;35.35;;
23001;SDS011;11667;51.706;4.856;2022-12-15T04:45:33;78.55;;;36.08;;
23001;SDS011;11667;51.706;4.856;2022-12-15T04:48:21;82.10;;;35.90;;
23001;SDS011;11667;51.706;4.856;2022-12-15T04:51:07;79.95;;;35.83;;
23001;SDS011;11667;51.706;4.856;2022-12-15T04:53:55;79.47;;;35.78;;
23001;SDS011;11667;51.706;4.856;2022-12-15T04:56:42;84.15;;;37.05;;
23001;SDS011;11667;51.706;4.856;2022-12-15T04:59:29;86.47;;;38.20;;
23001;SDS011;11667;51.706;4.856;2022-12-15T05:02:17;80.50;;;36.38;;
23001;SDS011;11667;51.706;4.856;2022-12-15T05:05:05;77.47;;;36.05;;
23001;SDS011;11667;51.706;4.856;2022-12-15T05:07:56;83.67;;;38.08;;
23001;SDS011;11667;51.706;4.856;2022-12-15T05:10:43;81.57;;;37.33;;
23001;SDS011;11667;51.706;4.856;2022-12-15T05:13:30;81.53;;;37.13;;
23001;SDS011;11667;51.706;4.856;2022-12-15T05:16:17;80.38;;;37.40;;
23001;SDS011;11667;51.706;4.856;2022-12-15T05:19:04;80.57;;;37.48;;
23001;SDS011;11667;51.706;4.856;2022-12-15T05:21:52;82.15;;;36.15;;
23001;SDS011;11667;51.706;4.856;2022-12-15T05:24:39;78.37;;;36.68;;
23001;SDS011;11667;51.706;4.856;2022-12-15T05:27:26;87.27;;;38.48;;
23001;SDS011;11667;51.706;4.856;2022-12-15T05:30:13;84.22;;;38.17;;
23001;SDS011;11667;51.706;4.856;2022-12-15T05:33:04;94.62;;;39.15;;
23001;SDS011;11667;51.706;4.856;2022-12-15T05:35:34;85.60;;;38.75;;
23001;SDS011;11667;51.706;4.856;2022-12-15T05:38:04;90.07;;;40.30;;
23001;SDS011;11667;51.706;4.856;2022-12-15T05:40:33;87.47;;;39.50;;
23001;SDS011;11667;51.706;4.856;2022-12-15T05:43:03;88.30;;;39.70;;
23001;SDS011;11667;51.706;4.856;2022-12-15T05:45:33;90.83;;;40.05;;
23001;SDS011;11667;51.706;4.856;2022-12-15T05:48:02;94.60;;;39.18;;
23001;SDS011;11667;51.706;4.856;2022-12-15T05:50:32;85.20;;;39.25;;
23001;SDS011;11667;51.706;4.856;2022-12-15T05:53:03;81.30;;;37.73;;
23001;SDS011;11667;51.706;4.856;2022-12-15T05:55:33;89.65;;;38.85;;
23001;SDS011;11667;51.706;4.856;2022-12-15T05:58:02;83.07;;;38.23;;
23001;SDS011;11667;51.706;4.856;2022-12-15T06:00:31;81.80;;;37.53;;
23001;SDS011;11667;51.706;4.856;2022-12-15T06:03:01;84.70;;;38.42;;
23001;SDS011;11667;51.706;4.856;2022-12-15T06:05:31;85.83;;;37.98;;
23001;SDS011;11667;51.706;4.856;2022-12-15T06:08:01;84.15;;;37.33;;
23001;SDS011;11667;51.706;4.856;2022-12-15T06:10:30;90.72;;;38.85;;
23001;SDS011;11667;51.706;4.856;2022-12-15T06:13:00;88.67;;;39.53;;
23001;SDS011;11667;51.706;4.856;2022-12-15T06:15:29;91.40;;;39.73;;
23001;SDS011;11667;51.706;4.856;2022-12-15T06:17:58;86.35;;;40.08;;
23001;SDS011;11667;51.706;4.856;2022-12-15T06:20:27;86.57;;;40.15;;
23001;SDS011;11667;51.706;4.856;2022-12-15T06:22:57;94.20;;;40.67;;
23001;SDS011;11667;51.706;4.856;2022-12-15T06:25:26;91.22;;;40.98;;
23001;SDS011;11667;51.706;4.856;2022-12-15T06:27:55;94.40;;;40.38;;
23001;SDS011;11667;51.706;4.856;2022-12-15T06:30:26;94.05;;;41.83;;
23001;SDS011;11667;51.706;4.856;2022-12-15T06:32:56;91.85;;;40.70;;
23001;SDS011;11667;51.706;4.856;2022-12-15T06:35:25;90.28;;;41.55;;
23001;SDS011;11667;51.706;4.856;2022-12-15T06:37:55;103.00;;;43.52;;
23001;SDS011;11667;51.706;4.856;2022-12-15T06:40:24;95.80;;;43.65;;
23001;SDS011;11667;51.706;4.856;2022-12-15T06:42:54;98.47;;;43.73;;
23001;SDS011;11667;51.706;4.856;2022-12-15T06:45:23;95.47;;;42.85;;
23001;SDS011;11667;51.706;4.856;2022-12-15T06:47:53;88.72;;;42.03;;
23001;SDS011;11667;51.706;4.856;2022-12-15T06:50:24;97.65;;;43.30;;
23001;SDS011;11667;51.706;4.856;2022-12-15T06:52:54;92.30;;;42.40;;
23001;SDS011;11667;51.706;4.856;2022-12-15T06:55:23;100.33;;;41.53;;
23001;SDS011;11667;51.706;4.856;2022-12-15T06:57:53;97.37;;;42.25;;
23001;SDS011;11667;51.706;4.856;2022-12-15T07:00:22;99.67;;;42.73;;
23001;SDS011;11667;51.706;4.856;2022-12-15T07:02:51;102.67;;;42.80;;
23001;SDS011;11667;51.706;4.856;2022-12-15T07:05:22;98.22;;;42.35;;
23001;SDS011;11667;51.706;4.856;2022-12-15T07:07:51;97.60;;;41.85;;
23001;SDS011;11667;51.706;4.856;2022-12-15T07:10:21;92.35;;;41.58;;
23001;SDS011;11667;51.706;4.856;2022-12-15T07:12:50;96.20;;;42.90;;
23001;SDS011;11667;51.706;4.856;2022-12-15T07:15:19;96.55;;;43.28;;
23001;SDS011;11667;51.706;4.856;2022-12-15T07:17:49;101.78;;;44.55;;
23001;SDS011;11667;51.706;4.856;2022-12-15T07:20:18;105.52;;;44.65;;
23001;SDS011;11667;51.706;4.856;2022-12-15T07:22:50;97.10;;;43.60;;
23001;SDS011;11667;51.706;4.856;2022-12-15T07:25:19;101.47;;;44.23;;
23001;SDS011;11667;51.706;4.856;2022-12-15T07:27:49;103.70;;;45.35;;
23001;SDS011;11667;51.706;4.856;2022-12-15T07:30:19;106.85;;;44.98;;
23001;SDS011;11667;51.706;4.856;2022-12-15T07:32:48;100.67;;;43.78;;
23001;SDS011;11667;51.706;4.856;2022-12-15T07:35:18;97.78;;;45.23;;
23001;SDS011;11667;51.706;4.856;2022-12-15T07:37:47;109.67;;;45.98;;
23001;SDS011;11667;51.706;4.856;2022-12-15T07:40:17;99.92;;;45.58;;
23001;SDS011;11667;51.706;4.856;2022-12-15T07:42:47;118.25;;;47.88;;
23001;SDS011;11667;51.706;4.856;2022-12-15T07:45:16;106.03;;;47.70;;
23001;SDS011;11667;51.706;4.856;2022-12-15T07:47:47;106.97;;;46.80;;
23001;SDS011;11667;51.706;4.856;2022-12-15T07:50:17;108.80;;;46.75;;
23001;SDS011;11667;51.706;4.856;2022-12-15T07:52:47;109.40;;;47.98;;
23001;SDS011;11667;51.706;4.856;2022-12-15T07:55:18;104.53;;;47.75;;
23001;SDS011;11667;51.706;4.856;2022-12-15T07:57:49;112.75;;;48.28;;
23001;SDS011;11667;51.706;4.856;2022-12-15T08:00:18;102.95;;;47.38;;
23001;SDS011;11667;51.706;4.856;2022-12-15T08:02:48;110.35;;;47.93;;
23001;SDS011;11667;51.706;4.856;2022-12-15T08:05:18;110.60;;;47.98;;
23001;SDS011;11667;51.706;4.856;2022-12-15T08:07:47;114.90;;;50.10;;
23001;SDS011;11667;51.706;4.856;2022-12-15T08:10:17;108.12;;;48.20;;
23001;SDS011;11667;51.706;4.856;2022-12-15T08:12:46;112.37;;;48.40;;
23001;SDS011;11667;51.706;4.856;2022-12-15T08:15:16;103.78;;;48.42;;
23001;SDS011;11667;51.706;4.856;2022-12-15T08:17:45;108.67;;;50.03;;
23001;SDS011;11667;51.706;4.856;2022-12-15T08:20:14;109.00;;;49.13;;
23001;SDS011;11667;51.706;4.856;2022-12-15T08:22:44;113.55;;;49.80;;
23001;SDS011;11667;51.706;4.856;2022-12-15T08:25:13;109.42;;;49.93;;
23001;SDS011;11667;51.706;4.856;2022-12-15T08:27:42;111.70;;;49.33;;
23001;SDS011;11667;51.706;4.856;2022-12-15T08:30:12;107.20;;;50.15;;
23001;SDS011;11667;51.706;4.856;2022-12-15T08:32:42;108.72;;;50.35;;
23001;SDS011;11667;51.706;4.856;2022-12-15T08:35:13;106.87;;;49.33;;
23001;SDS011;11667;51.706;4.856;2022-12-15T08:37:45;106.58;;;49.42;;
23001;SDS011;11667;51.706;4.856;2022-12-15T08:40:14;113.25;;;51.13;;
23001;SDS011;11667;51.706;4.856;2022-12-15T08:42:43;110.28;;;51.10;;
23001;SDS011;11667;51.706;4.856;2022-12-15T08:45:13;121.80;;;51.13;;
23001;SDS011;11667;51.706;4.856;2022-12-15T08:47:42;110.37;;;50.60;;
23001;SDS011;11667;51.706;4.856;2022-12-15T08:50:12;107.45;;;51.02;;
23001;SDS011;11667;51.706;4.856;2022-12-15T08:52:41;115.05;;;52.45;;
23001;SDS011;11667;51.706;4.856;2022-12-15T08:55:12;106.63;;;50.33;;
23001;SDS011;11667;51.706;4.856;2022-12-15T08:57:44;115.20;;;51.53;;
23001;SDS011;11667;51.706;4.856;2022-12-15T09:00:13;112.60;;;52.62;;
23001;SDS011;11667;51.706;4.856;2022-12-15T09:02:44;112.90;;;52.45;;
23001;SDS011;11667;51.706;4.856;2022-12-15T09:05:14;112.92;;;52.70;;
23001;SDS011;11667;51.706;4.856;2022-12-15T09:07:43;100.85;;;49.50;;
23001;SDS011;11667;51.706;4.856;2022-12-15T09:10:14;108.78;;;50.15;;
23001;SDS011;11667;51.706;4.856;2022-12-15T09:12:44;109.37;;;50.65;;
23001;SDS011;11667;51.706;4.856;2022-12-15T09:15:14;94.32;;;48.28;;
23001;SDS011;11667;51.706;4.856;2022-12-15T09:17:44;100.18;;;49.67;;
23001;SDS011;11667;51.706;4.856;2022-12-15T09:20:14;95.77;;;47.95;;
23001;SDS011;11667;51.706;4.856;2022-12-15T09:22:44;100.22;;;49.15;;
23001;SDS011;11667;51.706;4.856;2022-12-15T09:25:15;98.35;;;47.55;;
23001;SDS011;11667;51.706;4.856;2022-12-15T09:27:45;93.10;;;47.38;;
23001;SDS011;11667;51.706;4.856;2022-12-15T09:30:15;101.65;;;47.88;;
23001;SDS011;11667;51.706;4.856;2022-12-15T09:32:44;98.52;;;47.15;;
23001;SDS011;11667;51.706;4.856;2022-12-15T09:35:13;94.95;;;47.23;;
23001;SDS011;11667;51.706;4.856;2022-12-15T09:37:44;90.47;;;47.10;;
23001;SDS011;11667;51.706;4.856;2022-12-15T09:40:15;93.17;;;47.33;;
23001;SDS011;11667;51.706;4.856;2022-12-15T09:42:46;99.70;;;47.33;;
23001;SDS011;11667;51.706;4.856;2022-12-15T09:45:25;94.87;;;47.05;;
23001;SDS011;11667;51.706;4.856;2022-12-15T09:50:37;90.12;;;46.20;;
23001;SDS011;11667;51.706;4.856;2022-12-15T09:53:11;84.28;;;44.90;;
23001;SDS011;11667;51.706;4.856;2022-12-15T09:55:39;85.80;;;44.95;;
23001;SDS011;11667;51.706;4.856;2022-12-15T10:01:17;83.33;;;41.95;;
23001;SDS011;11667;51.706;4.856;2022-12-15T10:06:37;83.20;;;42.67;;
23001;SDS011;11667;51.706;4.856;2022-12-15T10:11:54;72.97;;;38.35;;
23001;SDS011;11667;51.706;4.856;2022-12-15T10:14:29;66.12;;;36.35;;
23001;SDS011;11667;51.706;4.856;2022-12-15T10:19:40;60.67;;;33.48;;
23001;SDS011;11667;51.706;4.856;2022-12-15T10:22:17;54.27;;;32.13;;
23001;SDS011;11667;51.706;4.856;2022-12-15T10:24:49;50.98;;;30.80;;
23001;SDS011;11667;51.706;4.856;2022-12-15T10:29:59;49.98;;;29.67;;
23001;SDS011;11667;51.706;4.856;2022-12-15T10:32:48;47.88;;;30.52;;
23001;SDS011;11667;51.706;4.856;2022-12-15T10:35:23;54.03;;;31.02;;
23001;SDS011;11667;51.706;4.856;2022-12-15T10:37:57;50.33;;;32.15;;
23001;SDS011;11667;51.706;4.856;2022-12-15T10:40:49;52.75;;;32.83;;
23001;SDS011;11667;51.706;4.856;2022-12-15T10:46:15;56.90;;;32.63;;
23001;SDS011;11667;51.706;4.856;2022-12-15T10:48:49;53.33;;;31.68;;
23001;SDS011;11667;51.706;4.856;2022-12-15T10:54:14;45.88;;;28.45;;
23001;SDS011;11667;51.706;4.856;2022-12-15T10:56:55;50.35;;;28.35;;
23001;SDS011;11667;51.706;4.856;2022-12-15T10:59:30;49.33;;;28.92;;
23001;SDS011;11667;51.706;4.856;2022-12-15T11:04:56;46.60;;;29.85;;
23001;SDS011;11667;51.706;4.856;2022-12-15T11:07:35;50.73;;;31.25;;
23001;SDS011;11667;51.706;4.856;2022-12-15T11:10:15;58.02;;;32.03;;
23001;SDS011;11667;51.706;4.856;2022-12-15T11:15:54;52.40;;;30.57;;
23001;SDS011;11667;51.706;4.856;2022-12-15T11:23:59;59.18;;;32.85;;
23001;SDS011;11667;51.706;4.856;2022-12-15T11:26:57;57.78;;;32.48;;
23001;SDS011;11667;51.706;4.856;2022-12-15T11:29:37;53.08;;;31.45;;
23001;SDS011;11667;51.706;4.856;2022-12-15T11:32:08;57.98;;;32.08;;
23001;SDS011;11667;51.706;4.856;2022-12-15T11:34:43;53.63;;;32.60;;
23001;SDS011;11667;51.706;4.856;2022-12-15T11:37:19;60.73;;;33.53;;
23001;SDS011;11667;51.706;4.856;2022-12-15T11:42:40;60.73;;;31.90;;
23001;SDS011;11667;51.706;4.856;2022-12-15T11:48:04;60.92;;;33.53;;
23001;SDS011;11667;51.706;4.856;2022-12-15T11:53:34;59.98;;;33.25;;
23001;SDS011;11667;51.706;4.856;2022-12-15T11:56:23;54.83;;;32.67;;
23001;SDS011;11667;51.706;4.856;2022-12-15T12:11:01;56.60;;;31.55;;
23001;SDS011;11667;51.706;4.856;2022-12-15T12:19:48;54.75;;;32.28;;
23001;SDS011;11667;51.706;4.856;2022-12-15T12:22:29;53.90;;;31.30;;
23001;SDS011;11667;51.706;4.856;2022-12-15T12:25:07;51.33;;;29.90;;
23001;SDS011;11667;51.706;4.856;2022-12-15T12:27:59;56.55;;;31.25;;
23001;SDS011;11667;51.706;4.856;2022-12-15T12:30:33;53.45;;;31.62;;
23001;SDS011;11667;51.706;4.856;2022-12-15T12:33:13;53.90;;;31.60;;
23001;SDS011;11667;51.706;4.856;2022-12-15T12:35:52;60.55;;;33.05;;
23001;SDS011;11667;51.706;4.856;2022-12-15T12:38:29;57.03;;;32.10;;
23001;SDS011;11667;51.706;4.856;2022-12-15T12:41:06;49.95;;;30.82;;
23001;SDS011;11667;51.706;4.856;2022-12-15T12:43:44;52.85;;;30.23;;
23001;SDS011;11667;51.706;4.856;2022-12-15T12:46:22;56.65;;;30.27;;
23001;SDS011;11667;51.706;4.856;2022-12-15T12:51:40;50.67;;;30.48;;
23001;SDS011;11667;51.706;4.856;2022-12-15T13:00:32;47.62;;;29.35;;
23001;SDS011;11667;51.706;4.856;2022-12-15T13:10:38;53.98;;;33.02;;
23001;SDS011;11667;51.706;4.856;2022-12-15T13:16:20;54.23;;;33.45;;
23001;SDS011;11667;51.706;4.856;2022-12-15T13:18:56;59.08;;;33.05;;
23001;SDS011;11667;51.706;4.856;2022-12-15T13:29:58;56.10;;;33.85;;
23001;SDS011;11667;51.706;4.856;2022-12-15T13:32:32;59.10;;;35.40;;
23001;SDS011;11667;51.706;4.856;2022-12-15T13:40:30;62.33;;;35.85;;
23001;SDS011;11667;51.706;4.856;2022-12-15T13:45:50;66.22;;;36.85;;
23001;SDS011;11667;51.706;4.856;2022-12-15T13:54:17;65.12;;;36.60;;
23001;SDS011;11667;51.706;4.856;2022-12-15T13:56:53;67.17;;;38.53;;
23001;SDS011;11667;51.706;4.856;2022-12-15T14:02:02;67.47;;;36.93;;
23001;SDS011;11667;51.706;4.856;2022-12-15T14:04:34;61.65;;;37.73;;
23001;SDS011;11667;51.706;4.856;2022-12-15T14:07:04;65.65;;;37.48;;
23001;SDS011;11667;51.706;4.856;2022-12-15T14:09:34;63.65;;;38.10;;
23001;SDS011;11667;51.706;4.856;2022-12-15T14:12:06;62.30;;;38.08;;
23001;SDS011;11667;51.706;4.856;2022-12-15T14:14:41;64.87;;;38.23;;
23001;SDS011;11667;51.706;4.856;2022-12-15T14:17:16;63.55;;;37.73;;
23001;SDS011;11667;51.706;4.856;2022-12-15T14:19:47;65.00;;;37.85;;
23001;SDS011;11667;51.706;4.856;2022-12-15T14:22:21;68.30;;;39.15;;
23001;SDS011;11667;51.706;4.856;2022-12-15T14:24:58;68.20;;;38.55;;
23001;SDS011;11667;51.706;4.856;2022-12-15T14:27:32;66.00;;;38.15;;
23001;SDS011;11667;51.706;4.856;2022-12-15T14:32:52;69.92;;;39.40;;
23001;SDS011;11667;51.706;4.856;2022-12-15T14:35:36;69.75;;;40.63;;
23001;SDS011;11667;51.706;4.856;2022-12-15T14:38:24;67.50;;;40.95;;
23001;SDS011;11667;51.706;4.856;2022-12-15T14:40:51;69.47;;;41.13;;
23001;SDS011;11667;51.706;4.856;2022-12-15T14:43:24;70.28;;;41.10;;
23001;SDS011;11667;51.706;4.856;2022-12-15T14:46:03;68.97;;;40.65;;
23001;SDS011;11667;51.706;4.856;2022-12-15T14:48:38;75.52;;;42.17;;
23001;SDS011;11667;51.706;4.856;2022-12-15T14:51:11;76.15;;;43.48;;
23001;SDS011;11667;51.706;4.856;2022-12-15T14:53:41;79.03;;;44.35;;
23001;SDS011;11667;51.706;4.856;2022-12-15T14:56:21;72.17;;;43.45;;
23001;SDS011;11667;51.706;4.856;2022-12-15T14:59:14;77.95;;;44.10;;
23001;SDS011;11667;51.706;4.856;2022-12-15T15:01:53;84.32;;;45.30;;
23001;SDS011;11667;51.706;4.856;2022-12-15T15:04:31;79.47;;;46.45;;
23001;SDS011;11667;51.706;4.856;2022-12-15T15:07:02;82.05;;;46.05;;
23001;SDS011;11667;51.706;4.856;2022-12-15T15:12:18;84.05;;;46.80;;
23001;SDS011;11667;51.706;4.856;2022-12-15T15:14:48;82.05;;;46.77;;
23001;SDS011;11667;51.706;4.856;2022-12-15T15:17:35;85.77;;;48.02;;
23001;SDS011;11667;51.706;4.856;2022-12-15T15:20:13;85.42;;;47.58;;
23001;SDS011;11667;51.706;4.856;2022-12-15T15:22:45;91.95;;;48.78;;
23001;SDS011;11667;51.706;4.856;2022-12-15T15:25:34;87.08;;;47.55;;
23001;SDS011;11667;51.706;4.856;2022-12-15T15:30:57;87.60;;;48.60;;
23001;SDS011;11667;51.706;4.856;2022-12-15T15:33:29;95.10;;;51.05;;
23001;SDS011;11667;51.706;4.856;2022-12-15T15:36:00;92.45;;;50.58;;
23001;SDS011;11667;51.706;4.856;2022-12-15T15:38:41;96.60;;;52.13;;
23001;SDS011;11667;51.706;4.856;2022-12-15T15:41:16;93.65;;;50.17;;
23001;SDS011;11667;51.706;4.856;2022-12-15T15:43:50;94.87;;;51.55;;
23001;SDS011;11667;51.706;4.856;2022-12-15T15:46:20;95.95;;;51.92;;
23001;SDS011;11667;51.706;4.856;2022-12-15T15:48:52;94.80;;;51.95;;
23001;SDS011;11667;51.706;4.856;2022-12-15T15:51:26;95.60;;;52.38;;
23001;SDS011;11667;51.706;4.856;2022-12-15T15:54:05;101.45;;;53.73;;
23001;SDS011;11667;51.706;4.856;2022-12-15T15:56:32;100.10;;;54.03;;
23001;SDS011;11667;51.706;4.856;2022-12-15T15:59:08;106.67;;;54.98;;
23001;SDS011;11667;51.706;4.856;2022-12-15T16:01:39;104.45;;;55.63;;
23001;SDS011;11667;51.706;4.856;2022-12-15T16:04:08;120.30;;;61.33;;
23001;SDS011;11667;51.706;4.856;2022-12-15T16:06:38;116.33;;;61.55;;
23001;SDS011;11667;51.706;4.856;2022-12-15T16:09:10;116.97;;;59.88;;
23001;SDS011;11667;51.706;4.856;2022-12-15T16:11:40;114.03;;;60.05;;
23001;SDS011;11667;51.706;4.856;2022-12-15T16:14:11;116.53;;;59.58;;
23001;SDS011;11667;51.706;4.856;2022-12-15T16:16:41;111.83;;;60.30;;
23001;SDS011;11667;51.706;4.856;2022-12-15T16:19:11;114.32;;;59.63;;
23001;SDS011;11667;51.706;4.856;2022-12-15T16:21:41;112.05;;;61.60;;
23001;SDS011;11667;51.706;4.856;2022-12-15T16:24:16;123.33;;;61.18;;
23001;SDS011;11667;51.706;4.856;2022-12-15T16:26:44;121.97;;;62.58;;
23001;SDS011;11667;51.706;4.856;2022-12-15T16:29:18;122.45;;;62.60;;
23001;SDS011;11667;51.706;4.856;2022-12-15T16:31:48;128.40;;;64.70;;
23001;SDS011;11667;51.706;4.856;2022-12-15T16:34:17;130.22;;;63.78;;
23001;SDS011;11667;51.706;4.856;2022-12-15T16:36:48;128.40;;;65.28;;
23001;SDS011;11667;51.706;4.856;2022-12-15T16:39:25;137.88;;;68.28;;
23001;SDS011;11667;51.706;4.856;2022-12-15T16:41:55;137.95;;;70.80;;
23001;SDS011;11667;51.706;4.856;2022-12-15T16:44:25;144.70;;;69.20;;
23001;SDS011;11667;51.706;4.856;2022-12-15T16:46:57;154.32;;;76.30;;
23001;SDS011;11667;51.706;4.856;2022-12-15T16:49:26;155.95;;;78.35;;
23001;SDS011;11667;51.706;4.856;2022-12-15T16:51:59;188.82;;;92.92;;
23001;SDS011;11667;51.706;4.856;2022-12-15T16:54:29;182.97;;;92.22;;
23001;SDS011;11667;51.706;4.856;2022-12-15T16:56:59;185.32;;;93.33;;
23001;SDS011;11667;51.706;4.856;2022-12-15T16:59:28;185.88;;;92.45;;
23001;SDS011;11667;51.706;4.856;2022-12-15T17:01:59;184.93;;;93.17;;
23001;SDS011;11667;51.706;4.856;2022-12-15T17:04:29;186.80;;;91.75;;
23001;SDS011;11667;51.706;4.856;2022-12-15T17:06:58;178.72;;;90.35;;
23001;SDS011;11667;51.706;4.856;2022-12-15T17:09:28;185.88;;;91.70;;
23001;SDS011;11667;51.706;4.856;2022-12-15T17:11:59;180.45;;;91.57;;
23001;SDS011;11667;51.706;4.856;2022-12-15T17:14:29;185.63;;;91.92;;
23001;SDS011;11667;51.706;4.856;2022-12-15T17:16:59;182.62;;;90.87;;
23001;SDS011;11667;51.706;4.856;2022-12-15T17:19:28;179.40;;;92.70;;